sensor_id;sensor_type;location;lat;lon;timestamp;pressure;altitude;pressure_sealevel;temperature
20092;BMP180;10205;49.678;6.560;2022-10-16T00:01:22;99574.00;;;19.00
20092;BMP180;10205;49.678;6.560;2022-10-16T00:03:50;99574.00;;;19.00
20092;BMP180;10205;49.678;6.560;2022-10-16T00:06:21;99551.00;;;19.00
20092;BMP180;10205;49.678;6.560;2022-10-16T00:08:50;99554.00;;;19.00
20092;BMP180;10205;49.678;6.560;2022-10-16T00:11:20;99561.00;;;19.00
20092;BMP180;10205;49.678;6.560;2022-10-16T00:13:50;99573.00;;;19.00
20092;BMP180;10205;49.678;6.560;2022-10-16T00:16:18;99570.00;;;19.00
20092;BMP180;10205;49.678;6.560;2022-10-16T00:18:46;99574.00;;;19.00
20092;BMP180;10205;49.678;6.560;2022-10-16T00:21:16;99575.00;;;19.00
20092;BMP180;10205;49.678;6.560;2022-10-16T00:23:46;99587.00;;;19.00
20092;BMP180;10205;49.678;6.560;2022-10-16T00:26:17;99584.00;;;19.00
20092;BMP180;10205;49.678;6.560;2022-10-16T00:28:46;99590.00;;;19.00
20092;BMP180;10205;49.678;6.560;2022-10-16T00:31:16;99590.00;;;19.00
20092;BMP180;10205;49.678;6.560;2022-10-16T00:33:43;99588.00;;;19.00
20092;BMP180;10205;49.678;6.560;2022-10-16T00:36:14;99586.00;;;19.00
20092;BMP180;10205;49.678;6.560;2022-10-16T00:38:42;99585.00;;;19.00
20092;BMP180;10205;49.678;6.560;2022-10-16T00:41:15;99574.00;;;19.00
20092;BMP180;10205;49.678;6.560;2022-10-16T00:43:45;99585.00;;;18.90
20092;BMP180;10205;49.678;6.560;2022-10-16T00:46:18;99575.00;;;18.90
20092;BMP180;10205;49.678;6.560;2022-10-16T00:48:51;99589.00;;;18.90
20092;BMP180;10205;49.678;6.560;2022-10-16T00:51:27;99600.00;;;18.90
20092;BMP180;10205;49.678;6.560;2022-10-16T00:53:56;99619.00;;;18.90
20092;BMP180;10205;49.678;6.560;2022-10-16T00:56:25;99594.00;;;18.90
20092;BMP180;10205;49.678;6.560;2022-10-16T00:58:53;99606.00;;;18.90
20092;BMP180;10205;49.678;6.560;2022-10-16T01:01:20;99604.00;;;18.90
20092;BMP180;10205;49.678;6.560;2022-10-16T01:03:47;99583.00;;;18.90
20092;BMP180;10205;49.678;6.560;2022-10-16T01:06:30;99583.00;;;18.80
20092;BMP180;10205;49.678;6.560;2022-10-16T01:09:14;99596.00;;;18.80
20092;BMP180;10205;49.678;6.560;2022-10-16T01:11:56;99606.00;;;18.80
20092;BMP180;10205;49.678;6.560;2022-10-16T01:14:39;99606.00;;;18.80
20092;BMP180;10205;49.678;6.560;2022-10-16T01:17:13;99593.00;;;18.80
20092;BMP180;10205;49.678;6.560;2022-10-16T01:20:03;99605.00;;;18.80
20092;BMP180;10205;49.678;6.560;2022-10-16T01:22:55;99606.00;;;18.80
20092;BMP180;10205;49.678;6.560;2022-10-16T01:25:43;99618.00;;;18.80
20092;BMP180;10205;49.678;6.560;2022-10-16T01:28:21;99615.00;;;18.80
20092;BMP180;10205;49.678;6.560;2022-10-16T01:30:54;99623.00;;;18.80
20092;BMP180;10205;49.678;6.560;2022-10-16T01:33:28;99619.00;;;18.80
20092;BMP180;10205;49.678;6.560;2022-10-16T01:36:03;99630.00;;;18.80
20092;BMP180;10205;49.678;6.560;2022-10-16T01:38:40;99620.00;;;18.80
20092;BMP180;10205;49.678;6.560;2022-10-16T01:41:13;99599.00;;;18.80
20092;BMP180;10205;49.678;6.560;2022-10-16T01:43:48;99607.00;;;18.80
20092;BMP180;10205;49.678;6.560;2022-10-16T01:46:21;99602.00;;;18.80
20092;BMP180;10205;49.678;6.560;2022-10-16T01:48:50;99617.00;;;18.80
20092;BMP180;10205;49.678;6.560;2022-10-16T01:51:20;99603.00;;;18.80
20092;BMP180;10205;49.678;6.560;2022-10-16T01:53:53;99606.00;;;18.80
20092;BMP180;10205;49.678;6.560;2022-10-16T01:56:24;99618.00;;;18.80
20092;BMP180;10205;49.678;6.560;2022-10-16T01:58:59;99617.00;;;18.80
20092;BMP180;10205;49.678;6.560;2022-10-16T02:01:31;99605.00;;;18.80
20092;BMP180;10205;49.678;6.560;2022-10-16T02:04:07;99612.00;;;18.80
20092;BMP180;10205;49.678;6.560;2022-10-16T02:06:36;99621.00;;;18.80
20092;BMP180;10205;49.678;6.560;2022-10-16T02:09:03;99628.00;;;18.80
20092;BMP180;10205;49.678;6.560;2022-10-16T02:11:30;99634.00;;;18.80
20092;BMP180;10205;49.678;6.560;2022-10-16T02:14:04;99623.00;;;18.80
20092;BMP180;10205;49.678;6.560;2022-10-16T02:16:38;99629.00;;;18.80
20092;BMP180;10205;49.678;6.560;2022-10-16T02:19:06;99621.00;;;18.80
20092;BMP180;10205;49.678;6.560;2022-10-16T02:21:43;99617.00;;;18.80
20092;BMP180;10205;49.678;6.560;2022-10-16T02:24:22;99617.00;;;18.80
20092;BMP180;10205;49.678;6.560;2022-10-16T02:26:58;99611.00;;;18.80
20092;BMP180;10205;49.678;6.560;2022-10-16T02:29:30;99623.00;;;18.80
20092;BMP180;10205;49.678;6.560;2022-10-16T02:32:02;99629.00;;;18.70
20092;BMP180;10205;49.678;6.560;2022-10-16T02:34:33;99624.00;;;18.70
20092;BMP180;10205;49.678;6.560;2022-10-16T02:37:04;99614.00;;;18.70
20092;BMP180;10205;49.678;6.560;2022-10-16T02:39:33;99610.00;;;18.70
20092;BMP180;10205;49.678;6.560;2022-10-16T02:42:01;99617.00;;;18.70
20092;BMP180;10205;49.678;6.560;2022-10-16T02:44:30;99612.00;;;18.70
20092;BMP180;10205;49.678;6.560;2022-10-16T02:46:57;99607.00;;;18.70
20092;BMP180;10205;49.678;6.560;2022-10-16T02:49:24;99615.00;;;18.70
20092;BMP180;10205;49.678;6.560;2022-10-16T02:51:52;99619.00;;;18.70
20092;BMP180;10205;49.678;6.560;2022-10-16T02:54:19;99620.00;;;18.70
20092;BMP180;10205;49.678;6.560;2022-10-16T02:56:46;99617.00;;;18.70
20092;BMP180;10205;49.678;6.560;2022-10-16T02:59:13;99620.00;;;18.70
20092;BMP180;10205;49.678;6.560;2022-10-16T03:01:42;99620.00;;;18.70
20092;BMP180;10205;49.678;6.560;2022-10-16T03:04:09;99613.00;;;18.70
20092;BMP180;10205;49.678;6.560;2022-10-16T03:06:36;99627.00;;;18.70
20092;BMP180;10205;49.678;6.560;2022-10-16T03:09:03;99613.00;;;18.70
20092;BMP180;10205;49.678;6.560;2022-10-16T03:11:30;99623.00;;;18.70
20092;BMP180;10205;49.678;6.560;2022-10-16T03:13:57;99620.00;;;18.70
20092;BMP180;10205;49.678;6.560;2022-10-16T03:16:25;99626.00;;;18.70
20092;BMP180;10205;49.678;6.560;2022-10-16T03:18:53;99626.00;;;18.70
20092;BMP180;10205;49.678;6.560;2022-10-16T03:21:21;99631.00;;;18.70
20092;BMP180;10205;49.678;6.560;2022-10-16T03:23:48;99634.00;;;18.70
20092;BMP180;10205;49.678;6.560;2022-10-16T03:26:15;99635.00;;;18.70
20092;BMP180;10205;49.678;6.560;2022-10-16T03:28:42;99630.00;;;18.70
20092;BMP180;10205;49.678;6.560;2022-10-16T03:31:10;99639.00;;;18.70
20092;BMP180;10205;49.678;6.560;2022-10-16T03:33:37;99628.00;;;18.70
20092;BMP180;10205;49.678;6.560;2022-10-16T03:36:05;99620.00;;;18.70
20092;BMP180;10205;49.678;6.560;2022-10-16T03:38:33;99624.00;;;18.70
20092;BMP180;10205;49.678;6.560;2022-10-16T03:41:00;99632.00;;;18.70
20092;BMP180;10205;49.678;6.560;2022-10-16T03:43:27;99632.00;;;18.70
20092;BMP180;10205;49.678;6.560;2022-10-16T03:45:55;99634.00;;;18.70
20092;BMP180;10205;49.678;6.560;2022-10-16T03:48:22;99638.00;;;18.70
20092;BMP180;10205;49.678;6.560;2022-10-16T03:50:49;99636.00;;;18.70
20092;BMP180;10205;49.678;6.560;2022-10-16T03:53:18;99638.00;;;18.70
20092;BMP180;10205;49.678;6.560;2022-10-16T03:55:46;99640.00;;;18.70
20092;BMP180;10205;49.678;6.560;2022-10-16T03:58:13;99645.00;;;18.70
20092;BMP180;10205;49.678;6.560;2022-10-16T04:00:41;99643.00;;;18.70
20092;BMP180;10205;49.678;6.560;2022-10-16T04:03:09;99647.00;;;18.70
20092;BMP180;10205;49.678;6.560;2022-10-16T04:05:36;99647.00;;;18.70
20092;BMP180;10205;49.678;6.560;2022-10-16T04:08:03;99638.00;;;18.70
20092;BMP180;10205;49.678;6.560;2022-10-16T04:10:32;99636.00;;;18.70
20092;BMP180;10205;49.678;6.560;2022-10-16T04:12:59;99642.00;;;18.70
20092;BMP180;10205;49.678;6.560;2022-10-16T04:15:27;99653.00;;;18.70
20092;BMP180;10205;49.678;6.560;2022-10-16T04:17:54;99647.00;;;18.70
20092;BMP180;10205;49.678;6.560;2022-10-16T04:20:21;99644.00;;;18.70
20092;BMP180;10205;49.678;6.560;2022-10-16T04:22:48;99645.00;;;18.70
20092;BMP180;10205;49.678;6.560;2022-10-16T04:25:15;99647.00;;;18.70
20092;BMP180;10205;49.678;6.560;2022-10-16T04:27:44;99655.00;;;18.70
20092;BMP180;10205;49.678;6.560;2022-10-16T04:30:11;99659.00;;;18.70
20092;BMP180;10205;49.678;6.560;2022-10-16T04:32:39;99665.00;;;18.70
20092;BMP180;10205;49.678;6.560;2022-10-16T04:35:07;99665.00;;;18.70
20092;BMP180;10205;49.678;6.560;2022-10-16T04:37:34;99675.00;;;18.70
20092;BMP180;10205;49.678;6.560;2022-10-16T04:40:03;99678.00;;;18.70
20092;BMP180;10205;49.678;6.560;2022-10-16T04:42:30;99674.00;;;18.70
20092;BMP180;10205;49.678;6.560;2022-10-16T04:44:59;99673.00;;;18.70
20092;BMP180;10205;49.678;6.560;2022-10-16T04:47:26;99678.00;;;18.70
20092;BMP180;10205;49.678;6.560;2022-10-16T04:49:53;99679.00;;;18.70
20092;BMP180;10205;49.678;6.560;2022-10-16T04:52:20;99680.00;;;18.70
20092;BMP180;10205;49.678;6.560;2022-10-16T04:54:52;99678.00;;;18.70
20092;BMP180;10205;49.678;6.560;2022-10-16T04:57:22;99691.00;;;18.70
20092;BMP180;10205;49.678;6.560;2022-10-16T04:59:49;99683.00;;;18.70
20092;BMP180;10205;49.678;6.560;2022-10-16T05:02:17;99678.00;;;18.70
20092;BMP180;10205;49.678;6.560;2022-10-16T05:04:45;99681.00;;;18.70
20092;BMP180;10205;49.678;6.560;2022-10-16T05:07:12;99674.00;;;18.70
20092;BMP180;10205;49.678;6.560;2022-10-16T05:09:39;99673.00;;;18.70
20092;BMP180;10205;49.678;6.560;2022-10-16T05:12:06;99683.00;;;18.70
20092;BMP180;10205;49.678;6.560;2022-10-16T05:14:33;99689.00;;;18.70
20092;BMP180;10205;49.678;6.560;2022-10-16T05:17:03;99694.00;;;18.70
20092;BMP180;10205;49.678;6.560;2022-10-16T05:19:32;99697.00;;;18.70
20092;BMP180;10205;49.678;6.560;2022-10-16T05:22:00;99680.00;;;18.70
20092;BMP180;10205;49.678;6.560;2022-10-16T05:24:30;99696.00;;;18.70
20092;BMP180;10205;49.678;6.560;2022-10-16T05:26:57;99705.00;;;18.70
20092;BMP180;10205;49.678;6.560;2022-10-16T05:29:24;99707.00;;;18.70
20092;BMP180;10205;49.678;6.560;2022-10-16T05:31:52;99707.00;;;18.70
20092;BMP180;10205;49.678;6.560;2022-10-16T05:34:21;99694.00;;;18.70
20092;BMP180;10205;49.678;6.560;2022-10-16T05:36:49;99696.00;;;18.70
20092;BMP180;10205;49.678;6.560;2022-10-16T05:39:17;99710.00;;;18.70
20092;BMP180;10205;49.678;6.560;2022-10-16T05:41:45;99715.00;;;18.70
20092;BMP180;10205;49.678;6.560;2022-10-16T05:44:12;99710.00;;;18.70
20092;BMP180;10205;49.678;6.560;2022-10-16T05:46:39;99719.00;;;18.70
20092;BMP180;10205;49.678;6.560;2022-10-16T05:49:06;99706.00;;;18.70
20092;BMP180;10205;49.678;6.560;2022-10-16T05:51:33;99725.00;;;18.70
20092;BMP180;10205;49.678;6.560;2022-10-16T05:54:02;99711.00;;;18.70
20092;BMP180;10205;49.678;6.560;2022-10-16T05:56:29;99716.00;;;18.70
20092;BMP180;10205;49.678;6.560;2022-10-16T05:58:56;99705.00;;;18.70
20092;BMP180;10205;49.678;6.560;2022-10-16T06:01:24;99706.00;;;18.70
20092;BMP180;10205;49.678;6.560;2022-10-16T06:03:52;99721.00;;;18.70
20092;BMP180;10205;49.678;6.560;2022-10-16T06:06:22;99720.00;;;18.70
20092;BMP180;10205;49.678;6.560;2022-10-16T06:08:53;99726.00;;;18.70
20092;BMP180;10205;49.678;6.560;2022-10-16T06:11:25;99728.00;;;18.70
20092;BMP180;10205;49.678;6.560;2022-10-16T06:13:54;99725.00;;;18.60
20092;BMP180;10205;49.678;6.560;2022-10-16T06:16:22;99724.00;;;18.60
20092;BMP180;10205;49.678;6.560;2022-10-16T06:18:52;99729.00;;;18.60
20092;BMP180;10205;49.678;6.560;2022-10-16T06:21:22;99729.00;;;18.60
20092;BMP180;10205;49.678;6.560;2022-10-16T06:23:52;99729.00;;;18.60
20092;BMP180;10205;49.678;6.560;2022-10-16T06:26:23;99727.00;;;18.60
20092;BMP180;10205;49.678;6.560;2022-10-16T06:28:51;99734.00;;;18.60
20092;BMP180;10205;49.678;6.560;2022-10-16T06:31:18;99744.00;;;18.60
20092;BMP180;10205;49.678;6.560;2022-10-16T06:33:45;99743.00;;;18.60
20092;BMP180;10205;49.678;6.560;2022-10-16T06:36:15;99754.00;;;18.60
20092;BMP180;10205;49.678;6.560;2022-10-16T06:38:42;99757.00;;;18.60
20092;BMP180;10205;49.678;6.560;2022-10-16T06:41:13;99762.00;;;18.60
20092;BMP180;10205;49.678;6.560;2022-10-16T06:43:42;99769.00;;;18.60
20092;BMP180;10205;49.678;6.560;2022-10-16T06:46:12;99768.00;;;18.60
20092;BMP180;10205;49.678;6.560;2022-10-16T06:48:40;99770.00;;;18.60
20092;BMP180;10205;49.678;6.560;2022-10-16T06:51:10;99774.00;;;18.60
20092;BMP180;10205;49.678;6.560;2022-10-16T06:53:43;99777.00;;;18.60
20092;BMP180;10205;49.678;6.560;2022-10-16T06:56:13;99788.00;;;18.60
20092;BMP180;10205;49.678;6.560;2022-10-16T06:58:43;99787.00;;;18.60
20092;BMP180;10205;49.678;6.560;2022-10-16T07:01:12;99781.00;;;18.60
20092;BMP180;10205;49.678;6.560;2022-10-16T07:03:42;99791.00;;;18.60
20092;BMP180;10205;49.678;6.560;2022-10-16T07:06:13;99786.00;;;18.60
20092;BMP180;10205;49.678;6.560;2022-10-16T07:08:42;99800.00;;;18.60
20092;BMP180;10205;49.678;6.560;2022-10-16T07:11:12;99809.00;;;18.60
20092;BMP180;10205;49.678;6.560;2022-10-16T07:13:43;99818.00;;;18.60
20092;BMP180;10205;49.678;6.560;2022-10-16T07:16:13;99823.00;;;18.60
20092;BMP180;10205;49.678;6.560;2022-10-16T07:18:41;99827.00;;;18.60
20092;BMP180;10205;49.678;6.560;2022-10-16T07:21:14;99826.00;;;18.60
20092;BMP180;10205;49.678;6.560;2022-10-16T07:23:42;99839.00;;;18.60
20092;BMP180;10205;49.678;6.560;2022-10-16T07:26:10;99844.00;;;18.60
20092;BMP180;10205;49.678;6.560;2022-10-16T07:28:38;99843.00;;;18.60
20092;BMP180;10205;49.678;6.560;2022-10-16T07:31:11;99843.00;;;18.60
20092;BMP180;10205;49.678;6.560;2022-10-16T07:33:41;99854.00;;;18.60
20092;BMP180;10205;49.678;6.560;2022-10-16T07:36:11;99857.00;;;18.70
20092;BMP180;10205;49.678;6.560;2022-10-16T07:38:38;99856.00;;;18.60
20092;BMP180;10205;49.678;6.560;2022-10-16T07:41:09;99866.00;;;18.70
20092;BMP180;10205;49.678;6.560;2022-10-16T07:43:38;99874.00;;;18.70
20092;BMP180;10205;49.678;6.560;2022-10-16T07:46:07;99870.00;;;18.70
20092;BMP180;10205;49.678;6.560;2022-10-16T07:48:35;99873.00;;;18.70
20092;BMP180;10205;49.678;6.560;2022-10-16T07:51:05;99865.00;;;18.70
20092;BMP180;10205;49.678;6.560;2022-10-16T07:53:33;99881.00;;;18.70
20092;BMP180;10205;49.678;6.560;2022-10-16T07:56:03;99879.00;;;18.70
20092;BMP180;10205;49.678;6.560;2022-10-16T07:58:32;99899.00;;;18.70
20092;BMP180;10205;49.678;6.560;2022-10-16T08:01:04;99897.00;;;18.70
20092;BMP180;10205;49.678;6.560;2022-10-16T08:03:33;99892.00;;;18.70
20092;BMP180;10205;49.678;6.560;2022-10-16T08:06:01;99903.00;;;18.70
20092;BMP180;10205;49.678;6.560;2022-10-16T08:08:29;99898.00;;;18.70
20092;BMP180;10205;49.678;6.560;2022-10-16T08:10:56;99907.00;;;18.70
20092;BMP180;10205;49.678;6.560;2022-10-16T08:13:23;99905.00;;;18.70
20092;BMP180;10205;49.678;6.560;2022-10-16T08:15:53;99913.00;;;18.80
20092;BMP180;10205;49.678;6.560;2022-10-16T08:18:20;99909.00;;;18.80
20092;BMP180;10205;49.678;6.560;2022-10-16T08:20:57;99911.00;;;18.80
20092;BMP180;10205;49.678;6.560;2022-10-16T08:23:26;99913.00;;;18.80
20092;BMP180;10205;49.678;6.560;2022-10-16T08:25:54;99913.00;;;18.80
20092;BMP180;10205;49.678;6.560;2022-10-16T08:28:22;99917.00;;;18.80
20092;BMP180;10205;49.678;6.560;2022-10-16T08:30:51;99920.00;;;18.80
20092;BMP180;10205;49.678;6.560;2022-10-16T08:33:18;99926.00;;;18.80
20092;BMP180;10205;49.678;6.560;2022-10-16T08:35:51;99925.00;;;18.80
20092;BMP180;10205;49.678;6.560;2022-10-16T08:38:21;99925.00;;;18.80
20092;BMP180;10205;49.678;6.560;2022-10-16T08:40:48;99925.00;;;18.80
20092;BMP180;10205;49.678;6.560;2022-10-16T08:43:31;99925.00;;;18.90
20092;BMP180;10205;49.678;6.560;2022-10-16T08:46:21;99935.00;;;18.90
20092;BMP180;10205;49.678;6.560;2022-10-16T08:48:53;99941.00;;;18.90
20092;BMP180;10205;49.678;6.560;2022-10-16T08:51:24;99944.00;;;18.90
20092;BMP180;10205;49.678;6.560;2022-10-16T08:53:57;99961.00;;;18.90
20092;BMP180;10205;49.678;6.560;2022-10-16T08:56:25;99956.00;;;18.90
20092;BMP180;10205;49.678;6.560;2022-10-16T08:58:54;99957.00;;;18.90
20092;BMP180;10205;49.678;6.560;2022-10-16T09:01:24;99957.00;;;18.90
20092;BMP180;10205;49.678;6.560;2022-10-16T09:04:22;99966.00;;;18.90
20092;BMP180;10205;49.678;6.560;2022-10-16T09:06:58;99953.00;;;18.90
20092;BMP180;10205;49.678;6.560;2022-10-16T09:09:49;99949.00;;;18.90
20092;BMP180;10205;49.678;6.560;2022-10-16T09:12:25;99944.00;;;18.90
20092;BMP180;10205;49.678;6.560;2022-10-16T09:15:13;99959.00;;;19.00
20092;BMP180;10205;49.678;6.560;2022-10-16T09:17:55;99966.00;;;19.00
20092;BMP180;10205;49.678;6.560;2022-10-16T09:20:43;99961.00;;;19.00
20092;BMP180;10205;49.678;6.560;2022-10-16T09:23:55;99895.00;;;18.80
20092;BMP180;10205;49.678;6.560;2022-10-16T09:28:56;99968.00;;;19.00
20092;BMP180;10205;49.678;6.560;2022-10-16T09:31:26;99980.00;;;19.00
20092;BMP180;10205;49.678;6.560;2022-10-16T09:33:57;99975.00;;;19.10
20092;BMP180;10205;49.678;6.560;2022-10-16T09:36:27;99980.00;;;19.10
20092;BMP180;10205;49.678;6.560;2022-10-16T09:39:06;99980.00;;;19.10
20092;BMP180;10205;49.678;6.560;2022-10-16T09:41:35;99967.00;;;19.10
20092;BMP180;10205;49.678;6.560;2022-10-16T09:44:18;99971.00;;;19.10
20092;BMP180;10205;49.678;6.560;2022-10-16T09:46:46;99965.00;;;19.20
20092;BMP180;10205;49.678;6.560;2022-10-16T09:49:22;99956.00;;;19.20
20092;BMP180;10205;49.678;6.560;2022-10-16T09:51:51;99949.00;;;19.20
20092;BMP180;10205;49.678;6.560;2022-10-16T09:54:29;99949.00;;;19.20
20092;BMP180;10205;49.678;6.560;2022-10-16T09:57:05;99940.00;;;19.20
20092;BMP180;10205;49.678;6.560;2022-10-16T09:59:46;99928.00;;;19.30
20092;BMP180;10205;49.678;6.560;2022-10-16T10:02:15;99929.00;;;19.30
20092;BMP180;10205;49.678;6.560;2022-10-16T10:04:49;99928.00;;;19.30
20092;BMP180;10205;49.678;6.560;2022-10-16T10:07:24;99944.00;;;19.30
20092;BMP180;10205;49.678;6.560;2022-10-16T10:09:53;99947.00;;;19.40
20092;BMP180;10205;49.678;6.560;2022-10-16T10:12:23;99959.00;;;19.40
20092;BMP180;10205;49.678;6.560;2022-10-16T10:14:55;99955.00;;;19.40
20092;BMP180;10205;49.678;6.560;2022-10-16T10:17:25;99956.00;;;19.50
20092;BMP180;10205;49.678;6.560;2022-10-16T10:19:54;99958.00;;;19.50
20092;BMP180;10205;49.678;6.560;2022-10-16T10:22:31;99952.00;;;19.60
20092;BMP180;10205;49.678;6.560;2022-10-16T10:25:19;99953.00;;;19.60
20092;BMP180;10205;49.678;6.560;2022-10-16T10:28:21;99953.00;;;19.60
20092;BMP180;10205;49.678;6.560;2022-10-16T10:31:02;99966.00;;;19.70
20092;BMP180;10205;49.678;6.560;2022-10-16T10:33:41;99959.00;;;19.70
20092;BMP180;10205;49.678;6.560;2022-10-16T10:36:25;99963.00;;;19.70
20092;BMP180;10205;49.678;6.560;2022-10-16T10:38:59;99954.00;;;19.80
20092;BMP180;10205;49.678;6.560;2022-10-16T10:42:01;99966.00;;;19.80
20092;BMP180;10205;49.678;6.560;2022-10-16T10:44:53;99971.00;;;19.80
20092;BMP180;10205;49.678;6.560;2022-10-16T10:47:35;99972.00;;;19.90
20092;BMP180;10205;49.678;6.560;2022-10-16T10:50:21;99968.00;;;19.90
20092;BMP180;10205;49.678;6.560;2022-10-16T10:53:01;99979.00;;;19.90
20092;BMP180;10205;49.678;6.560;2022-10-16T10:55:43;99976.00;;;19.90
20092;BMP180;10205;49.678;6.560;2022-10-16T10:58:42;99978.00;;;20.00
20092;BMP180;10205;49.678;6.560;2022-10-16T11:01:16;99968.00;;;20.00
20092;BMP180;10205;49.678;6.560;2022-10-16T11:07:17;99979.00;;;20.10
20092;BMP180;10205;49.678;6.560;2022-10-16T11:09:50;99983.00;;;20.10
20092;BMP180;10205;49.678;6.560;2022-10-16T11:12:23;99979.00;;;20.10
20092;BMP180;10205;49.678;6.560;2022-10-16T11:15:01;99977.00;;;20.20
20092;BMP180;10205;49.678;6.560;2022-10-16T11:17:47;99985.00;;;20.20
20092;BMP180;10205;49.678;6.560;2022-10-16T11:20:22;99981.00;;;20.20
20092;BMP180;10205;49.678;6.560;2022-10-16T11:22:56;99982.00;;;20.20
20092;BMP180;10205;49.678;6.560;2022-10-16T11:25:27;99987.00;;;20.30
20092;BMP180;10205;49.678;6.560;2022-10-16T11:28:06;99984.00;;;20.30
20092;BMP180;10205;49.678;6.560;2022-10-16T11:30:44;99978.00;;;20.30
20092;BMP180;10205;49.678;6.560;2022-10-16T11:33:30;99976.00;;;20.30
20092;BMP180;10205;49.678;6.560;2022-10-16T11:36:12;99971.00;;;20.40
20092;BMP180;10205;49.678;6.560;2022-10-16T11:38:48;99968.00;;;20.40
20092;BMP180;10205;49.678;6.560;2022-10-16T11:41:26;99962.00;;;20.40
20092;BMP180;10205;49.678;6.560;2022-10-16T11:44:15;99959.00;;;20.40
20092;BMP180;10205;49.678;6.560;2022-10-16T11:46:51;99957.00;;;20.40
20092;BMP180;10205;49.678;6.560;2022-10-16T11:49:24;99964.00;;;20.50
20092;BMP180;10205;49.678;6.560;2022-10-16T11:52:03;99962.00;;;20.50
20092;BMP180;10205;49.678;6.560;2022-10-16T11:54:43;99964.00;;;20.50
20092;BMP180;10205;49.678;6.560;2022-10-16T11:57:17;99960.00;;;20.50
20092;BMP180;10205;49.678;6.560;2022-10-16T11:59:52;99958.00;;;20.60
20092;BMP180;10205;49.678;6.560;2022-10-16T12:02:40;99962.00;;;20.60
20092;BMP180;10205;49.678;6.560;2022-10-16T12:05:24;99972.00;;;20.60
20092;BMP180;10205;49.678;6.560;2022-10-16T12:08:04;99962.00;;;20.60
20092;BMP180;10205;49.678;6.560;2022-10-16T12:10:33;99959.00;;;20.60
20092;BMP180;10205;49.678;6.560;2022-10-16T12:13:03;99962.00;;;20.70
20092;BMP180;10205;49.678;6.560;2022-10-16T12:15:33;99955.00;;;20.70
20092;BMP180;10205;49.678;6.560;2022-10-16T12:18:01;99962.00;;;20.70
20092;BMP180;10205;49.678;6.560;2022-10-16T12:20:31;99961.00;;;20.80
20092;BMP180;10205;49.678;6.560;2022-10-16T12:23:02;99965.00;;;20.80
20092;BMP180;10205;49.678;6.560;2022-10-16T12:25:33;99959.00;;;20.80
20092;BMP180;10205;49.678;6.560;2022-10-16T12:28:04;99961.00;;;20.80
20092;BMP180;10205;49.678;6.560;2022-10-16T12:30:36;99969.00;;;20.80
20092;BMP180;10205;49.678;6.560;2022-10-16T12:33:16;99969.00;;;20.90
20092;BMP180;10205;49.678;6.560;2022-10-16T12:35:46;99962.00;;;20.90
20092;BMP180;10205;49.678;6.560;2022-10-16T12:38:19;99954.00;;;20.90
20092;BMP180;10205;49.678;6.560;2022-10-16T12:40:58;99957.00;;;20.90
20092;BMP180;10205;49.678;6.560;2022-10-16T12:43:39;99962.00;;;20.90
20092;BMP180;10205;49.678;6.560;2022-10-16T12:46:33;99952.00;;;20.90
20092;BMP180;10205;49.678;6.560;2022-10-16T12:49:30;99953.00;;;20.90
20092;BMP180;10205;49.678;6.560;2022-10-16T12:51:58;99957.00;;;20.90
20092;BMP180;10205;49.678;6.560;2022-10-16T12:54:29;99956.00;;;21.00
20092;BMP180;10205;49.678;6.560;2022-10-16T12:57:18;99958.00;;;21.00
20092;BMP180;10205;49.678;6.560;2022-10-16T12:59:58;99954.00;;;21.00
20092;BMP180;10205;49.678;6.560;2022-10-16T13:03:25;99943.00;;;21.00
20092;BMP180;10205;49.678;6.560;2022-10-16T13:06:12;99945.00;;;21.00
20092;BMP180;10205;49.678;6.560;2022-10-16T13:09:05;99940.00;;;21.10
20092;BMP180;10205;49.678;6.560;2022-10-16T13:11:55;99948.00;;;21.10
20092;BMP180;10205;49.678;6.560;2022-10-16T13:14:57;99945.00;;;21.10
20092;BMP180;10205;49.678;6.560;2022-10-16T13:17:38;99953.00;;;21.10
20092;BMP180;10205;49.678;6.560;2022-10-16T13:20:18;99944.00;;;21.10
20092;BMP180;10205;49.678;6.560;2022-10-16T13:22:58;99942.00;;;21.20
20092;BMP180;10205;49.678;6.560;2022-10-16T13:25:45;99948.00;;;21.20
20092;BMP180;10205;49.678;6.560;2022-10-16T13:28:20;99952.00;;;21.20
20092;BMP180;10205;49.678;6.560;2022-10-16T13:30:53;99955.00;;;21.20
20092;BMP180;10205;49.678;6.560;2022-10-16T13:33:35;99948.00;;;21.20
20092;BMP180;10205;49.678;6.560;2022-10-16T13:36:05;99945.00;;;21.20
20092;BMP180;10205;49.678;6.560;2022-10-16T13:38:35;99937.00;;;21.30
20092;BMP180;10205;49.678;6.560;2022-10-16T13:41:05;99944.00;;;21.30
20092;BMP180;10205;49.678;6.560;2022-10-16T13:43:37;99954.00;;;21.30
20092;BMP180;10205;49.678;6.560;2022-10-16T13:46:10;99949.00;;;21.30
20092;BMP180;10205;49.678;6.560;2022-10-16T13:48:38;99948.00;;;21.40
20092;BMP180;10205;49.678;6.560;2022-10-16T13:51:13;99944.00;;;21.40
20092;BMP180;10205;49.678;6.560;2022-10-16T13:53:45;99941.00;;;21.40
20092;BMP180;10205;49.678;6.560;2022-10-16T13:56:15;99949.00;;;21.40
20092;BMP180;10205;49.678;6.560;2022-10-16T13:58:44;99940.00;;;21.40
20092;BMP180;10205;49.678;6.560;2022-10-16T14:01:19;99940.00;;;21.50
20092;BMP180;10205;49.678;6.560;2022-10-16T14:04:04;99942.00;;;21.50
20092;BMP180;10205;49.678;6.560;2022-10-16T14:06:33;99946.00;;;21.50
20092;BMP180;10205;49.678;6.560;2022-10-16T14:09:06;99941.00;;;21.50
20092;BMP180;10205;49.678;6.560;2022-10-16T14:11:44;99935.00;;;21.50
20092;BMP180;10205;49.678;6.560;2022-10-16T14:14:15;99937.00;;;21.50
20092;BMP180;10205;49.678;6.560;2022-10-16T14:16:43;99934.00;;;21.50
20092;BMP180;10205;49.678;6.560;2022-10-16T14:19:20;99929.00;;;21.50
20092;BMP180;10205;49.678;6.560;2022-10-16T14:21:48;99927.00;;;21.50
20092;BMP180;10205;49.678;6.560;2022-10-16T14:24:31;99921.00;;;21.50
20092;BMP180;10205;49.678;6.560;2022-10-16T14:26:59;99927.00;;;21.60
20092;BMP180;10205;49.678;6.560;2022-10-16T14:29:30;99927.00;;;21.60
20092;BMP180;10205;49.678;6.560;2022-10-16T14:32:00;99919.00;;;21.60
20092;BMP180;10205;49.678;6.560;2022-10-16T14:34:30;99926.00;;;21.60
20092;BMP180;10205;49.678;6.560;2022-10-16T14:37:01;99923.00;;;21.60
20092;BMP180;10205;49.678;6.560;2022-10-16T14:39:33;99927.00;;;21.60
20092;BMP180;10205;49.678;6.560;2022-10-16T14:42:01;99920.00;;;21.60
20092;BMP180;10205;49.678;6.560;2022-10-16T14:44:32;99924.00;;;21.60
20092;BMP180;10205;49.678;6.560;2022-10-16T14:47:11;99931.00;;;21.60